createdAt,value
2019-04-07T00:01:48.548Z,9.56
2019-04-07T00:04:17.934Z,9.54
2019-04-07T00:06:47.695Z,9.49
2019-04-07T00:09:17.600Z,9.49
2019-04-07T00:11:46.999Z,9.48
2019-04-07T00:14:16.729Z,9.45
2019-04-07T00:16:46.005Z,9.45
2019-04-07T00:19:15.663Z,9.50
2019-04-07T00:21:45.555Z,9.40
2019-04-07T00:24:14.990Z,9.32
2019-04-07T00:26:44.831Z,9.37
2019-04-07T00:29:14.450Z,9.31
2019-04-07T00:31:43.885Z,9.32
2019-04-07T00:34:13.157Z,9.28
2019-04-07T00:36:42.409Z,9.23
2019-04-07T00:39:11.773Z,9.18
2019-04-07T00:41:41.012Z,9.23
2019-04-07T00:44:10.286Z,9.17
2019-04-07T00:46:39.817Z,9.20
2019-04-07T00:49:09.498Z,9.15
2019-04-07T00:51:39.037Z,9.13
2019-04-07T00:54:08.447Z,9.17
2019-04-07T00:56:37.650Z,9.18
2019-04-07T00:59:06.925Z,9.10
2019-04-07T01:01:36.182Z,9.05
2019-04-07T01:04:05.695Z,9.09
2019-04-07T01:06:34.956Z,9.05
2019-04-07T01:09:05.707Z,9.04
2019-04-07T01:11:35.424Z,9.04
2019-04-07T01:14:04.955Z,9.04
2019-04-07T01:16:34.288Z,9.04
2019-04-07T01:19:03.558Z,9.07
2019-04-07T01:21:33.099Z,9.04
2019-04-07T01:24:03.309Z,8.99
2019-04-07T01:26:32.736Z,8.93
2019-04-07T01:29:03.004Z,8.95
2019-04-07T01:31:32.957Z,8.95
2019-04-07T01:34:02.279Z,8.93
2019-04-07T01:36:31.676Z,8.94
2019-04-07T01:39:01.477Z,8.91
2019-04-07T01:41:35.893Z,8.87
2019-04-07T01:44:13.633Z,8.92
2019-04-07T01:47:07.866Z,8.89
2019-04-07T01:49:56.606Z,8.83
2019-04-07T01:52:33.878Z,8.79
2019-04-07T01:55:23.555Z,8.75
2019-04-07T01:58:07.330Z,8.73
2019-04-07T02:01:07.666Z,8.64
2019-04-07T02:03:53.581Z,8.58
2019-04-07T02:06:50.896Z,8.58
2019-04-07T02:09:39.310Z,8.62
2019-04-07T02:12:27.489Z,8.59
2019-04-07T02:15:21.755Z,8.63
2019-04-07T02:18:04.300Z,8.57
2019-04-07T02:21:03.265Z,8.50
2019-04-07T02:24:00.778Z,8.43
2019-04-07T02:26:54.503Z,8.38
2019-04-07T02:29:41.484Z,8.41
2019-04-07T02:32:32.740Z,8.32
2019-04-07T02:35:09.738Z,8.27
2019-04-07T02:38:02.197Z,8.34
2019-04-07T02:40:53.489Z,8.31
2019-04-07T02:43:44.768Z,8.33
2019-04-07T02:46:38.268Z,8.28
2019-04-07T02:49:30.234Z,8.29
2019-04-07T02:52:13.052Z,8.27
2019-04-07T02:54:53.545Z,8.24
2019-04-07T02:57:42.167Z,8.24
2019-04-07T03:00:23.095Z,8.13
2019-04-07T03:03:11.274Z,8.12
2019-04-07T03:05:56.964Z,8.08
2019-04-07T03:08:41.414Z,8.04
2019-04-07T03:11:32.631Z,8.06
2019-04-07T03:14:15.055Z,7.98
2019-04-07T03:16:51.785Z,7.98
2019-04-07T03:19:31.839Z,7.97
2019-04-07T03:22:35.410Z,7.96
2019-04-07T03:25:24.376Z,7.87
2019-04-07T03:28:12.740Z,7.82
2019-04-07T03:31:10.722Z,7.82
2019-04-07T03:34:03.039Z,7.79
2019-04-07T03:37:13.104Z,7.75
2019-04-07T03:39:22.279Z,7.71
2019-04-07T03:42:16.397Z,7.76
2019-04-07T03:45:08.200Z,7.68
2019-04-07T03:47:50.973Z,7.70
2019-04-07T03:50:32.276Z,7.73
2019-04-07T03:53:39.322Z,7.66
2019-04-07T03:56:21.978Z,7.60
2019-04-07T03:59:01.447Z,7.57
2019-04-07T04:02:08.125Z,7.47
2019-04-07T04:04:45.877Z,7.42
2019-04-07T04:07:31.476Z,7.39
2019-04-07T04:10:26.991Z,7.42
2019-04-07T04:13:01.917Z,7.40
2019-04-07T04:15:34.533Z,7.33
2019-04-07T04:18:03.787Z,7.36
2019-04-07T04:20:33.052Z,7.26
2019-04-07T04:23:02.354Z,7.26
2019-04-07T04:25:32.208Z,7.35
2019-04-07T04:28:01.664Z,7.29
2019-04-07T04:30:31.901Z,7.31
2019-04-07T04:33:02.088Z,7.26
2019-04-07T04:35:32.371Z,7.35
2019-04-07T04:38:02.035Z,7.35
2019-04-07T04:40:32.302Z,7.30
2019-04-07T04:43:02.712Z,7.29
2019-04-07T04:45:32.263Z,7.26
2019-04-07T04:48:02.768Z,7.37
2019-04-07T04:50:32.049Z,7.32
2019-04-07T04:53:02.059Z,7.42
2019-04-07T04:55:31.865Z,7.36
2019-04-07T04:58:02.134Z,7.40
2019-04-07T05:00:32.144Z,7.40
2019-04-07T05:03:01.411Z,7.48
2019-04-07T05:05:30.663Z,7.48
2019-04-07T05:08:03.622Z,7.50
2019-04-07T05:10:31.032Z,7.48
2019-04-07T05:13:00.445Z,7.51
2019-04-07T05:15:29.779Z,7.63
2019-04-07T05:17:59.065Z,7.64
2019-04-07T05:20:28.528Z,7.70
2019-04-07T05:22:58.589Z,7.78
2019-04-07T05:25:28.349Z,7.66
2019-04-07T05:27:57.942Z,6.92
2019-04-07T05:30:28.224Z,6.69
2019-04-07T05:32:57.528Z,6.51
2019-04-07T05:35:27.496Z,6.38
2019-04-07T05:38:02.833Z,6.59
2019-04-07T05:40:27.935Z,6.81
2019-04-07T05:42:57.233Z,6.99
2019-04-07T05:45:27.042Z,7.12
2019-04-07T05:47:56.424Z,7.29
2019-04-07T05:50:27.478Z,7.45
2019-04-07T05:52:56.720Z,7.34
2019-04-07T05:55:25.949Z,7.13
2019-04-07T05:57:55.194Z,7.05
2019-04-07T06:00:25.092Z,7.29
2019-04-07T06:02:54.484Z,7.25
2019-04-07T06:05:24.458Z,7.26
2019-04-07T06:07:53.883Z,7.53
2019-04-07T06:10:27.628Z,7.76
2019-04-07T06:12:54.197Z,7.93
2019-04-07T06:15:23.495Z,8.16
2019-04-07T06:17:55.510Z,8.30
2019-04-07T06:20:23.706Z,8.50
2019-04-07T06:22:54.447Z,8.64
2019-04-07T06:25:24.993Z,8.89
2019-04-07T06:27:54.416Z,9.07
2019-04-07T06:30:24.088Z,9.15
2019-04-07T06:32:53.826Z,9.31
2019-04-07T06:35:23.473Z,9.47
2019-04-07T06:37:53.116Z,9.58
2019-04-07T06:40:23.134Z,9.64
2019-04-07T06:42:52.411Z,9.76
2019-04-07T06:45:25.678Z,9.92
2019-04-07T06:47:57.311Z,10.07
2019-04-07T06:50:47.562Z,10.20
2019-04-07T06:53:29.054Z,10.35
2019-04-07T06:56:06.887Z,10.74
2019-04-07T06:58:58.144Z,10.96
2019-04-07T07:01:34.954Z,11.28
2019-04-07T07:04:23.453Z,11.91
2019-04-07T07:07:11.680Z,12.80
2019-04-07T07:10:09.541Z,14.34
2019-04-07T07:12:47.643Z,17.45
2019-04-07T07:15:28.356Z,21.46
2019-04-07T07:18:19.952Z,23.83
2019-04-07T07:21:07.355Z,26.10
2019-04-07T07:23:39.737Z,28.17
2019-04-07T07:26:09.808Z,29.62
2019-04-07T07:28:42.958Z,29.98
2019-04-07T07:31:10.243Z,31.34
2019-04-07T07:33:41.605Z,31.62
2019-04-07T07:36:10.779Z,32.84
2019-04-07T07:38:40.551Z,33.63
2019-04-07T07:41:10.916Z,34.93
2019-04-07T07:43:40.377Z,34.88
2019-04-07T07:46:09.648Z,33.85
2019-04-07T07:48:38.979Z,35.88
2019-04-07T07:51:12.927Z,36.59
2019-04-07T07:53:39.427Z,37.25
2019-04-07T07:56:12.124Z,36.49
2019-04-07T07:58:39.785Z,35.90
2019-04-07T08:01:11.290Z,36.31
2019-04-07T08:03:40.507Z,36.59
2019-04-07T08:06:09.842Z,36.73
2019-04-07T08:08:39.660Z,35.74
2019-04-07T08:11:08.982Z,35.75
2019-04-07T08:13:43.395Z,36.26
2019-04-07T08:16:09.783Z,37.40
2019-04-07T08:18:43.539Z,37.00
2019-04-07T08:21:12.488Z,38.04
2019-04-07T08:23:44.895Z,37.21
2019-04-07T08:26:12.549Z,38.34
2019-04-07T08:28:42.759Z,38.13
2019-04-07T08:31:12.131Z,38.01
2019-04-07T08:33:42.098Z,37.26
2019-04-07T08:36:12.966Z,35.18
2019-04-07T08:38:42.628Z,33.55
2019-04-07T08:41:13.377Z,35.71
2019-04-07T08:43:42.844Z,35.88
2019-04-07T08:46:12.149Z,34.38
2019-04-07T08:48:41.466Z,32.09
2019-04-07T08:51:11.254Z,29.33
2019-04-07T08:53:43.556Z,27.88
2019-04-07T08:56:11.944Z,28.08
2019-04-07T08:58:41.454Z,29.93
2019-04-07T09:01:10.721Z,32.64
2019-04-07T09:03:40.071Z,32.36
2019-04-07T09:06:09.710Z,29.46
2019-04-07T09:08:39.876Z,31.59
2019-04-07T09:11:15.777Z,31.19
2019-04-07T09:13:55.926Z,33.42
2019-04-07T09:16:52.717Z,34.91
2019-04-07T09:19:39.770Z,36.02
2019-04-07T09:22:36.408Z,33.40
2019-04-07T09:25:28.763Z,32.69
2019-04-07T09:28:04.578Z,32.88
2019-04-07T09:30:48.723Z,30.40
2019-04-07T09:33:36.962Z,29.47
2019-04-07T09:36:25.392Z,29.59
2019-04-07T09:39:14.422Z,30.60
2019-04-07T09:42:03.130Z,30.90
2019-04-07T09:45:00.477Z,30.50
2019-04-07T09:48:00.880Z,29.66
2019-04-07T09:50:45.987Z,28.37
2019-04-07T09:53:23.776Z,26.66
2019-04-07T09:56:27.262Z,26.09
2019-04-07T09:59:29.688Z,26.17
2019-04-07T10:02:11.447Z,25.98
2019-04-07T10:05:02.491Z,26.07
2019-04-07T10:07:54.370Z,25.14
2019-04-07T10:10:38.319Z,24.26
2019-04-07T10:13:45.306Z,25.07
2019-04-07T10:16:25.837Z,25.38
2019-04-07T10:19:13.099Z,25.87
2019-04-07T10:22:01.662Z,25.69
2019-04-07T10:24:59.089Z,25.49
2019-04-07T10:27:53.253Z,24.76
2019-04-07T10:30:47.349Z,23.40
2019-04-07T10:33:34.366Z,24.34
2019-04-07T10:36:21.627Z,26.03
2019-04-07T10:39:13.044Z,25.29
2019-04-07T10:42:13.777Z,24.74
2019-04-07T10:45:02.197Z,25.64
2019-04-07T10:47:43.699Z,26.05
2019-04-07T10:50:34.649Z,25.62
2019-04-07T10:53:34.237Z,23.98
2019-04-07T10:56:28.855Z,23.06
2019-04-07T10:59:17.888Z,24.01
2019-04-07T11:02:05.854Z,25.75
2019-04-07T11:05:13.019Z,24.61
2019-04-07T11:07:48.341Z,23.84
2019-04-07T11:10:39.138Z,24.56
2019-04-07T11:13:25.071Z,26.79
2019-04-07T11:16:16.104Z,27.18
2019-04-07T11:19:06.026Z,27.23
2019-04-07T11:21:47.898Z,27.38
2019-04-07T11:24:37.107Z,26.45
2019-04-07T11:27:31.271Z,24.14
2019-04-07T11:30:19.509Z,24.89
2019-04-07T11:33:03.570Z,24.53
2019-04-07T11:36:04.116Z,25.48
2019-04-07T11:38:49.412Z,26.99
2019-04-07T11:41:52.787Z,29.64
2019-04-07T11:44:32.269Z,31.16
2019-04-07T11:47:06.774Z,32.55
2019-04-07T11:49:58.267Z,32.48
2019-04-07T11:52:43.927Z,31.01
2019-04-07T11:55:29.169Z,28.63
2019-04-07T11:58:34.634Z,26.35
2019-04-07T12:01:18.853Z,26.18
2019-04-07T12:04:07.890Z,24.56
2019-04-07T12:06:52.621Z,23.73
2019-04-07T12:09:43.699Z,22.66
2019-04-07T12:12:47.330Z,22.21
2019-04-07T12:15:30.530Z,23.27
2019-04-07T12:18:27.875Z,25.22
2019-04-07T12:21:20.052Z,24.09
2019-04-07T12:24:10.597Z,23.18
2019-04-07T12:27:10.855Z,22.35
2019-04-07T12:29:48.550Z,22.21
2019-04-07T12:32:35.935Z,22.21
2019-04-07T12:35:13.394Z,22.27
2019-04-07T12:38:12.229Z,20.39
2019-04-07T12:41:14.428Z,20.30
2019-04-07T12:43:55.218Z,20.34
2019-04-07T12:46:38.683Z,20.74
2019-04-07T12:49:26.046Z,19.96
2019-04-07T12:52:11.757Z,20.21
2019-04-07T12:55:00.427Z,20.97
2019-04-07T12:58:04.799Z,21.50
2019-04-07T13:00:59.913Z,21.54
2019-04-07T13:04:04.657Z,21.39
2019-04-07T13:06:52.297Z,21.79
2019-04-07T13:09:55.699Z,21.83
2019-04-07T13:12:47.938Z,21.96
2019-04-07T13:15:31.433Z,21.98
2019-04-07T13:18:09.699Z,21.23
2019-04-07T13:21:13.436Z,20.53
2019-04-07T13:24:10.038Z,20.92
2019-04-07T13:26:53.945Z,20.92
2019-04-07T13:29:43.286Z,22.19
2019-04-07T13:32:46.845Z,22.38
2019-04-07T13:35:42.507Z,22.20
2019-04-07T13:38:28.269Z,22.40
2019-04-07T13:41:18.586Z,22.04
2019-04-07T13:44:13.036Z,21.58
2019-04-07T13:47:06.226Z,21.76
2019-04-07T13:50:02.791Z,22.51
2019-04-07T13:53:01.508Z,24.00
2019-04-07T13:55:49.899Z,24.40
2019-04-07T13:58:37.953Z,23.73
2019-04-07T14:01:18.502Z,24.53
2019-04-07T14:04:06.860Z,26.02
2019-04-07T14:06:54.414Z,27.05
2019-04-07T14:09:48.602Z,27.36
2019-04-07T14:12:30.982Z,26.29
2019-04-07T14:15:17.705Z,25.56
2019-04-07T14:18:09.011Z,24.60
2019-04-07T14:21:04.057Z,23.84
2019-04-07T14:23:42.271Z,22.69
2019-04-07T14:26:36.598Z,22.26
2019-04-07T14:29:29.003Z,21.98
2019-04-07T14:32:20.879Z,21.27
2019-04-07T14:35:09.384Z,20.97
2019-04-07T14:37:57.198Z,20.51
2019-04-07T14:40:54.896Z,20.39
2019-04-07T14:43:58.299Z,20.09
2019-04-07T14:46:43.775Z,20.26
2019-04-07T14:49:35.737Z,20.11
2019-04-07T14:52:13.375Z,20.25
2019-04-07T14:55:05.017Z,20.15
2019-04-07T14:57:51.329Z,21.07
2019-04-07T15:00:42.834Z,21.07
2019-04-07T15:03:12.177Z,21.64
2019-04-07T15:05:43.690Z,21.57
2019-04-07T15:08:32.915Z,21.59
2019-04-07T15:11:28.076Z,21.49
2019-04-07T15:14:00.375Z,21.17
2019-04-07T15:16:28.615Z,20.88
2019-04-07T15:18:58.710Z,20.81
2019-04-07T15:21:28.083Z,20.81
2019-04-07T15:24:01.878Z,20.81
2019-04-07T15:26:29.260Z,20.81
2019-04-07T15:28:59.411Z,20.90
2019-04-07T15:31:29.598Z,20.96
2019-04-07T15:34:00.831Z,21.04
2019-04-07T15:36:30.070Z,21.45
2019-04-07T15:38:59.629Z,22.40
2019-04-07T15:41:29.540Z,22.85
2019-04-07T15:43:58.949Z,23.29
2019-04-07T15:46:28.976Z,23.29
2019-04-07T15:48:59.419Z,23.43
2019-04-07T15:51:29.454Z,23.17
2019-04-07T15:53:59.427Z,22.93
2019-04-07T15:56:28.685Z,22.89
2019-04-07T15:59:00.715Z,22.77
2019-04-07T16:01:28.927Z,22.57
2019-04-07T16:03:59.103Z,22.29
2019-04-07T16:06:28.656Z,22.27
2019-04-07T16:09:00.220Z,21.73
2019-04-07T16:11:30.485Z,21.15
2019-04-07T16:13:59.865Z,20.52
2019-04-07T16:16:29.538Z,19.84
2019-04-07T16:18:59.362Z,19.84
2019-04-07T16:21:29.782Z,19.53
2019-04-07T16:23:59.482Z,19.25
2019-04-07T16:26:31.129Z,19.03
2019-04-07T16:28:59.895Z,18.83
2019-04-07T16:31:29.863Z,18.77
2019-04-07T16:34:00.206Z,18.63
2019-04-07T16:36:30.237Z,18.56
2019-04-07T16:39:01.914Z,18.43
2019-04-07T16:41:31.577Z,18.27
2019-04-07T16:44:04.210Z,18.20
2019-04-07T16:46:31.957Z,18.04
2019-04-07T16:49:01.822Z,17.91
2019-04-07T16:51:33.633Z,17.74
2019-04-07T16:54:02.734Z,17.41
2019-04-07T16:56:32.329Z,17.12
2019-04-07T16:59:02.636Z,17.00
2019-04-07T17:01:32.350Z,16.72
2019-04-07T17:04:01.620Z,16.64
2019-04-07T17:06:35.305Z,16.50
2019-04-07T17:09:02.492Z,16.29
2019-04-07T17:11:32.311Z,16.07
2019-04-07T17:14:02.921Z,16.04
2019-04-07T17:16:33.457Z,15.85
2019-04-07T17:19:02.840Z,15.96
2019-04-07T17:21:32.897Z,15.88
2019-04-07T17:24:02.342Z,15.80
2019-04-07T17:26:36.098Z,15.78
2019-04-07T17:29:03.217Z,15.64
2019-04-07T17:31:33.496Z,15.68
2019-04-07T17:34:04.942Z,15.59
2019-04-07T17:36:34.350Z,15.57
2019-04-07T17:39:36.898Z,15.39
2019-04-07T17:42:05.935Z,15.38
2019-04-07T17:44:54.306Z,15.30
2019-04-07T17:47:48.703Z,15.21
2019-04-07T17:50:40.128Z,15.06
2019-04-07T17:53:32.668Z,14.90
2019-04-07T17:56:14.747Z,14.78
2019-04-07T17:59:08.685Z,14.82
2019-04-07T18:01:52.400Z,14.81
2019-04-07T18:04:43.848Z,14.68
2019-04-07T18:07:39.483Z,14.68
2019-04-07T18:10:39.542Z,14.68
2019-04-07T18:13:49.932Z,14.52
2019-04-07T18:16:38.585Z,14.42
2019-04-07T18:19:21.375Z,14.38
2019-04-07T18:22:28.585Z,14.21
2019-04-07T18:25:14.167Z,14.06
2019-04-07T18:28:01.116Z,13.87
2019-04-07T18:30:41.885Z,13.79
2019-04-07T18:33:39.018Z,13.68
2019-04-07T18:36:25.732Z,13.60
2019-04-07T18:39:15.953Z,13.41
2019-04-07T18:41:56.092Z,13.37
2019-04-07T18:44:54.214Z,13.26
2019-04-07T18:47:41.593Z,13.23
2019-04-07T18:50:29.125Z,13.15
2019-04-07T18:53:11.948Z,13.19
2019-04-07T18:55:57.932Z,13.11
2019-04-07T18:58:33.194Z,13.01
2019-04-07T19:01:22.277Z,13.00
2019-04-07T19:04:28.145Z,12.99
2019-04-07T19:07:09.806Z,13.01
2019-04-07T19:10:07.887Z,12.86
2019-04-07T19:13:04.988Z,12.77
2019-04-07T19:15:48.993Z,12.70
2019-04-07T19:18:34.970Z,12.74
2019-04-07T19:21:22.538Z,12.66
2019-04-07T19:24:10.698Z,12.60
2019-04-07T19:26:54.433Z,12.49
2019-04-07T19:29:43.473Z,12.47
2019-04-07T19:32:25.067Z,12.38
2019-04-07T19:35:13.326Z,12.31
2019-04-07T19:38:04.785Z,12.37
2019-04-07T19:41:00.412Z,12.35
2019-04-07T19:43:43.714Z,12.31
2019-04-07T19:46:34.148Z,12.18
2019-04-07T19:49:41.029Z,12.13
2019-04-07T19:52:41.585Z,12.10
2019-04-07T19:55:25.862Z,11.95
2019-04-07T19:58:13.992Z,11.95
2019-04-07T20:01:06.253Z,11.90
2019-04-07T20:04:03.592Z,11.77
2019-04-07T20:06:55.448Z,11.77
2019-04-07T20:09:48.339Z,11.76
2019-04-07T20:12:27.220Z,11.77
2019-04-07T20:15:10.301Z,11.73
2019-04-07T20:18:12.448Z,11.70
2019-04-07T20:20:58.201Z,11.60
2019-04-07T20:23:45.336Z,11.37
2019-04-07T20:26:34.783Z,11.27
2019-04-07T20:29:34.150Z,11.17
2019-04-07T20:32:23.349Z,11.16
2019-04-07T20:35:11.543Z,11.09
2019-04-07T20:38:01.938Z,11.05
2019-04-07T20:40:47.866Z,11.10
2019-04-07T20:43:25.916Z,11.13
2019-04-07T20:46:14.175Z,11.11
2019-04-07T20:49:11.657Z,11.08
2019-04-07T20:52:02.665Z,11.06
2019-04-07T20:54:44.392Z,11.02
2019-04-07T20:57:27.313Z,11.02
2019-04-07T21:00:16.595Z,11.01
2019-04-07T21:03:14.382Z,10.97
2019-04-07T21:05:46.232Z,10.96
2019-04-07T21:08:23.326Z,10.93
2019-04-07T21:11:15.210Z,10.88
2019-04-07T21:14:18.705Z,10.97
2019-04-07T21:16:59.338Z,10.87
2019-04-07T21:19:54.339Z,10.84
2019-04-07T21:22:36.971Z,10.85
2019-04-07T21:25:31.879Z,10.75
2019-04-07T21:28:11.545Z,10.76
2019-04-07T21:31:05.653Z,10.67
2019-04-07T21:34:12.346Z,10.71
2019-04-07T21:37:00.688Z,10.67
2019-04-07T21:40:06.988Z,10.59
2019-04-07T21:42:54.513Z,10.52
2019-04-07T21:45:47.160Z,10.48
2019-04-07T21:48:32.000Z,10.34
2019-04-07T21:51:10.697Z,9.77
2019-04-07T21:53:51.861Z,9.47
2019-04-07T21:56:43.098Z,9.50
2019-04-07T21:59:33.614Z,9.60
2019-04-07T22:02:14.233Z,9.43
2019-04-07T22:04:50.679Z,9.06
2019-04-07T22:07:33.630Z,8.85
2019-04-07T22:10:05.280Z,8.84
2019-04-07T22:12:34.649Z,8.64
2019-04-07T22:15:05.129Z,8.72
2019-04-07T22:17:37.199Z,8.89
2019-04-07T22:20:06.236Z,9.04
2019-04-07T22:22:35.509Z,9.20
2019-04-07T22:25:07.053Z,9.29
2019-04-07T22:27:36.042Z,9.36
2019-04-07T22:30:09.189Z,9.41
2019-04-07T22:32:38.521Z,9.45
2019-04-07T22:35:08.477Z,9.49
2019-04-07T22:37:37.789Z,9.49
2019-04-07T22:40:13.608Z,9.51
2019-04-07T22:42:45.476Z,9.46
2019-04-07T22:45:14.930Z,9.48
2019-04-07T22:47:44.551Z,9.46
2019-04-07T22:50:13.874Z,9.44
2019-04-07T22:52:47.354Z,9.48
2019-04-07T22:55:14.368Z,9.55
2019-04-07T22:57:44.156Z,9.49
2019-04-07T23:00:21.307Z,9.47
2019-04-07T23:02:50.675Z,9.41
2019-04-07T23:05:19.936Z,9.46
2019-04-07T23:07:50.084Z,9.46
2019-04-07T23:10:19.814Z,9.41
2019-04-07T23:12:49.863Z,9.37
2019-04-07T23:15:19.185Z,9.08
2019-04-07T23:17:49.167Z,8.76
2019-04-07T23:20:19.884Z,8.36
2019-04-07T23:22:49.968Z,8.13
2019-04-07T23:25:19.987Z,8.06
2019-04-07T23:27:50.488Z,7.77
2019-04-07T23:30:23.925Z,7.77
2019-04-07T23:32:53.510Z,7.81
2019-04-07T23:35:22.899Z,7.91
2019-04-07T23:37:52.153Z,8.12
2019-04-07T23:40:21.384Z,8.26
2019-04-07T23:42:50.935Z,8.36
2019-04-07T23:45:20.364Z,8.43
2019-04-07T23:47:50.421Z,8.50
2019-04-07T23:50:19.738Z,8.58
2019-04-07T23:52:49.763Z,8.65
2019-04-07T23:55:20.383Z,8.69
2019-04-07T23:57:49.646Z,8.68
